Time,TemperatureF,DewpointF,PressureIn,WindDirection,WindDirectionDegrees,WindSpeedMPH,WindSpeedGustMPH,Humidity,HourlyPrecipIn,Conditions,Clouds,dailyrainin,SoftwareType,DateUTC
2013-07-26 00:42:00,60.0,53.0,-100.00,NE,35,0.0,2.0,79,0.00,,,-99.99,,2013-07-26 04:42:00,
2013-07-26 01:32:00,58.0,53.0,-100.00,NNE,25,0.0,2.0,83,0.00,,,-99.99,,2013-07-26 05:32:00,
2013-07-26 01:43:00,58.0,53.0,-100.00,ENE,60,0.0,2.0,83,0.00,,,-99.99,,2013-07-26 05:43:00,
2013-07-26 02:02:00,58.0,53.0,-100.00,ENE,60,0.0,2.0,82,0.00,,,-99.99,,2013-07-26 06:02:00,
2013-07-26 02:33:00,58.0,53.0,-100.00,NE,50,0.0,1.0,82,0.00,,,-99.99,,2013-07-26 06:33:00,
2013-07-26 02:43:00,58.0,53.0,-100.00,NE,55,1.0,2.0,81,0.00,,,-99.99,,2013-07-26 06:43:00,
2013-07-26 02:52:00,58.0,53.0,-100.00,NE,45,0.0,2.0,82,0.00,,,-99.99,,2013-07-26 06:52:00,
2013-07-26 03:02:00,58.0,53.0,-100.00,NE,55,0.0,2.0,83,0.00,,,-99.99,,2013-07-26 07:02:00,
2013-07-26 03:12:00,58.0,53.0,-100.00,NE,45,0.0,0.0,83,0.00,,,-99.99,,2013-07-26 07:12:00,
2013-07-26 03:22:00,58.0,53.0,-100.00,NE,50,1.0,2.0,83,0.00,,,-99.99,,2013-07-26 07:22:00,
2013-07-26 03:32:00,58.0,53.0,-100.00,NE,55,1.0,2.0,82,0.00,,,-99.99,,2013-07-26 07:32:00,
2013-07-26 03:43:00,58.0,53.0,-100.00,NE,50,0.0,2.0,82,0.00,,,-99.99,,2013-07-26 07:43:00,
2013-07-26 03:53:00,58.0,53.0,-100.00,NNE,30,1.0,1.0,82,0.00,,,-99.99,,2013-07-26 07:53:00,
2013-07-26 04:02:00,58.0,53.0,-100.00,NE,40,1.0,2.0,83,0.00,,,-99.99,,2013-07-26 08:02:00,
2013-07-26 04:12:00,58.0,53.0,-100.00,NE,55,0.0,2.0,81,0.00,,,-99.99,,2013-07-26 08:12:00,
2013-07-26 04:22:00,59.0,52.0,-100.00,ENE,65,1.0,2.0,77,0.00,,,-99.99,,2013-07-26 08:22:00,
2013-07-26 04:32:00,58.0,53.0,-100.00,NE,40,1.0,3.0,80,0.00,,,-99.99,,2013-07-26 08:32:00,
2013-07-26 04:44:00,58.0,53.0,-100.00,NE,50,1.0,2.0,80,0.00,,,-99.99,,2013-07-26 08:44:00,
2013-07-26 04:52:00,58.0,53.0,-100.00,NE,50,0.0,1.0,82,0.00,,,-99.99,,2013-07-26 08:52:00,
2013-07-26 05:02:00,58.0,53.0,-100.00,NE,35,0.0,1.0,81,0.00,,,-99.99,,2013-07-26 09:02:00,
2013-07-26 05:12:00,58.0,53.0,-100.00,NE,40,0.0,2.0,81,0.00,,,-99.99,,2013-07-26 09:12:00,
2013-07-26 05:52:00,59.0,51.0,-100.00,ENE,65,1.0,2.0,76,0.00,,,-99.99,,2013-07-26 09:52:00,
2013-07-26 06:02:00,58.0,52.0,-100.00,NE,50,1.0,2.0,77,0.00,,,-99.99,,2013-07-26 10:02:00,
2013-07-26 06:33:00,58.0,51.0,-100.00,NE,50,1.0,2.0,77,0.00,,,-99.99,,2013-07-26 10:33:00,
2013-07-26 06:42:00,58.0,51.0,-100.00,ENE,60,1.0,3.0,77,0.00,,,-99.99,,2013-07-26 10:42:00,
2013-07-26 07:02:00,58.0,51.0,-100.00,NE,40,1.0,3.0,76,0.00,,,-99.99,,2013-07-26 11:02:00,
2013-07-26 09:32:00,68.0,54.0,-100.00,East,100,4.0,6.0,60,0.00,,,-99.99,,2013-07-26 13:32:00,
2013-07-26 09:43:00,69.0,53.0,-100.00,East,95,2.0,5.0,58,0.00,,,-99.99,,2013-07-26 13:43:00,
2013-07-26 10:12:00,69.0,52.0,-100.00,ESE,115,2.0,6.0,54,0.00,,,-99.99,,2013-07-26 14:12:00,
2013-07-26 10:43:00,71.0,54.0,-100.00,East,95,1.0,7.0,53,0.00,,,-99.99,,2013-07-26 14:43:00,
2013-07-26 11:02:00,71.0,52.0,-100.00,South,175,2.0,6.0,50,0.00,,,-99.99,,2013-07-26 15:02:00,
2013-07-26 11:12:00,71.0,51.0,-100.00,ESE,120,4.0,6.0,48,0.00,,,-99.99,,2013-07-26 15:12:00,
2013-07-26 12:02:00,71.0,52.0,-100.00,South,175,4.0,6.0,49,0.00,,,-99.99,,2013-07-26 16:02:00,
2013-07-26 12:14:00,72.0,54.0,-100.00,South,190,3.0,6.0,52,0.00,,,-99.99,,2013-07-26 16:14:00,
2013-07-26 12:22:00,73.0,52.0,-100.00,ESE,120,4.0,7.0,49,0.00,,,-99.99,,2013-07-26 16:22:00,
2013-07-26 12:32:00,72.0,53.0,-100.00,South,190,3.0,9.0,50,0.00,,,-99.99,,2013-07-26 16:32:00,
2013-07-26 12:43:00,73.0,53.0,-100.00,SE,130,4.0,9.0,50,0.00,,,-99.99,,2013-07-26 16:43:00,
2013-07-26 13:12:00,73.0,55.0,-100.00,ESE,115,4.0,8.0,53,0.00,,,-99.99,,2013-07-26 17:12:00,
2013-07-26 13:43:00,73.0,53.0,-100.00,SE,140,6.0,8.0,49,0.00,,,-99.99,,2013-07-26 17:43:00,
2013-07-26 14:03:00,74.0,53.0,-100.00,South,175,5.0,8.0,48,0.00,,,-99.99,,2013-07-26 18:03:00,
2013-07-26 14:12:00,73.0,54.0,-100.00,South,185,6.0,9.0,50,0.00,,,-99.99,,2013-07-26 18:12:00,
2013-07-26 15:03:00,76.0,54.0,-100.00,ESE,110,6.0,9.0,47,0.00,,,-99.99,,2013-07-26 19:03:00,
2013-07-26 15:43:00,76.0,56.0,-100.00,SE,135,4.0,8.0,50,0.00,,,-99.99,,2013-07-26 19:43:00,
2013-07-26 15:52:00,76.0,56.0,-100.00,SE,135,4.0,8.0,50,0.00,,,-99.99,,2013-07-26 19:52:00,
2013-07-26 16:02:00,76.0,56.0,-100.00,SE,135,4.0,8.0,50,0.00,,,-99.99,,2013-07-26 20:02:00,
2013-07-26 16:22:00,77.0,57.0,-100.00,SE,140,6.0,8.0,50,0.00,,,-99.99,,2013-07-26 20:22:00,
2013-07-26 16:43:00,76.0,54.0,-100.00,East,85,6.0,13.0,46,0.00,,,-99.99,,2013-07-26 20:43:00,
2013-07-26 17:02:00,77.0,52.0,-100.00,SE,145,6.0,12.0,41,0.00,,,-99.99,,2013-07-26 21:02:00,
2013-07-26 17:43:00,77.0,54.0,-100.00,SSE,155,6.0,10.0,44,0.00,,,-99.99,,2013-07-26 21:43:00,
2013-07-26 18:12:00,76.0,54.0,-100.00,East,100,4.0,9.0,46,0.00,,,-99.99,,2013-07-26 22:12:00,
2013-07-26 18:33:00,76.0,55.0,-100.00,ESE,120,3.0,10.0,47,0.00,,,-99.99,,2013-07-26 22:33:00,
2013-07-26 18:43:00,76.0,56.0,-100.00,SSE,150,4.0,11.0,49,0.00,,,-99.99,,2013-07-26 22:43:00,
2013-07-26 19:02:00,76.0,56.0,-100.00,SE,135,4.0,8.0,50,0.00,,,-99.99,,2013-07-26 23:02:00,
2013-07-26 19:32:00,74.0,57.0,-100.00,SE,135,3.0,7.0,56,0.00,,,-99.99,,2013-07-26 23:32:00,
2013-07-26 19:43:00,74.0,58.0,-100.00,SSE,165,2.0,6.0,57,0.00,,,-99.99,,2013-07-26 23:43:00,
2013-07-26 20:02:00,73.0,57.0,-100.00,ESE,110,4.0,6.0,57,0.00,,,-99.99,,2013-07-27 00:02:00,
2013-07-26 20:12:00,72.0,57.0,-100.00,SE,135,2.0,6.0,59,0.00,,,-99.99,,2013-07-27 00:12:00,
2013-07-26 20:32:00,71.0,57.0,-100.00,ESE,120,2.0,4.0,60,0.00,,,-99.99,,2013-07-27 00:32:00,
2013-07-26 20:43:00,71.0,57.0,-100.00,SSE,160,1.0,4.0,61,0.00,,,-99.99,,2013-07-27 00:43:00,
2013-07-26 20:53:00,71.0,57.0,-100.00,ESE,115,1.0,4.0,62,0.00,,,-99.99,,2013-07-27 00:53:00,
2013-07-26 21:02:00,70.0,57.0,-100.00,South,175,2.0,3.0,62,0.00,,,-99.99,,2013-07-27 01:02:00,
2013-07-26 21:12:00,70.0,57.0,-100.00,SSE,165,1.0,4.0,62,0.00,,,-99.99,,2013-07-27 01:12:00,
2013-07-26 21:22:00,70.0,57.0,-100.00,SE,145,1.0,4.0,63,0.00,,,-99.99,,2013-07-27 01:22:00,
2013-07-26 21:32:00,69.0,57.0,-100.00,ESE,115,1.0,3.0,65,0.00,,,-99.99,,2013-07-27 01:32:00,
2013-07-26 21:43:00,69.0,57.0,-100.00,SE,140,1.0,4.0,65,0.00,,,-99.99,,2013-07-27 01:43:00,
2013-07-26 21:53:00,69.0,57.0,-100.00,ESE,120,2.0,3.0,65,0.00,,,-99.99,,2013-07-27 01:53:00,
2013-07-26 22:02:00,69.0,57.0,-100.00,ESE,110,2.0,4.0,65,0.00,,,-99.99,,2013-07-27 02:02:00,
2013-07-26 22:12:00,69.0,57.0,-100.00,ESE,110,2.0,4.0,65,0.00,,,-99.99,,2013-07-27 02:12:00,
2013-07-26 22:22:00,68.0,57.0,-100.00,East,100,2.0,4.0,68,0.00,,,-99.99,,2013-07-27 02:22:00,
2013-07-26 22:32:00,69.0,57.0,-100.00,ESE,105,2.0,3.0,66,0.00,,,-99.99,,2013-07-27 02:32:00,
2013-07-26 22:43:00,68.0,57.0,-100.00,East,95,2.0,4.0,67,0.00,,,-99.99,,2013-07-27 02:43:00,
2013-07-26 23:22:00,68.0,57.0,-100.00,East,85,1.0,4.0,69,0.00,,,-99.99,,2013-07-27 03:22:00,
2013-07-26 23:33:00,68.0,58.0,-100.00,ESE,110,2.0,4.0,70,0.00,,,-99.99,,2013-07-27 03:33:00,
2013-07-26 23:44:00,68.0,58.0,-100.00,ESE,105,2.0,4.0,69,0.00,,,-99.99,,2013-07-27 03:44:00,